sensor_id;sensor_type;location;lat;lon;timestamp;temperature;humidity
12839;DHT22;6486;51.034;5.262;2022-12-18T00:01:19;-2.40;67.90
12839;DHT22;6486;51.034;5.262;2022-12-18T00:03:46;-2.40;67.80
12839;DHT22;6486;51.034;5.262;2022-12-18T00:06:12;-2.50;67.50
12839;DHT22;6486;51.034;5.262;2022-12-18T00:08:39;-2.50;67.40
12839;DHT22;6486;51.034;5.262;2022-12-18T00:11:06;-2.50;67.40
12839;DHT22;6486;51.034;5.262;2022-12-18T00:13:33;-2.50;67.40
12839;DHT22;6486;51.034;5.262;2022-12-18T00:16:07;-2.60;67.30
12839;DHT22;6486;51.034;5.262;2022-12-18T00:18:33;-2.60;67.40
12839;DHT22;6486;51.034;5.262;2022-12-18T00:21:00;-2.60;67.50
12839;DHT22;6486;51.034;5.262;2022-12-18T00:23:27;-2.60;67.50
12839;DHT22;6486;51.034;5.262;2022-12-18T00:25:53;-2.70;67.30
12839;DHT22;6486;51.034;5.262;2022-12-18T00:28:18;-2.70;67.30
12839;DHT22;6486;51.034;5.262;2022-12-18T00:30:44;-2.70;67.30
12839;DHT22;6486;51.034;5.262;2022-12-18T00:33:09;-2.70;67.20
12839;DHT22;6486;51.034;5.262;2022-12-18T00:35:35;-2.80;67.10
12839;DHT22;6486;51.034;5.262;2022-12-18T00:38:01;-2.80;67.10
12839;DHT22;6486;51.034;5.262;2022-12-18T00:40:26;-2.80;67.00
12839;DHT22;6486;51.034;5.262;2022-12-18T00:42:52;-2.80;67.00
12839;DHT22;6486;51.034;5.262;2022-12-18T00:45:22;-2.80;67.10
12839;DHT22;6486;51.034;5.262;2022-12-18T00:47:47;-2.80;67.20
12839;DHT22;6486;51.034;5.262;2022-12-18T00:50:13;-2.80;67.30
12839;DHT22;6486;51.034;5.262;2022-12-18T00:52:39;-2.80;67.30
12839;DHT22;6486;51.034;5.262;2022-12-18T00:55:04;-2.80;68.00
12839;DHT22;6486;51.034;5.262;2022-12-18T00:57:30;-2.80;67.30
12839;DHT22;6486;51.034;5.262;2022-12-18T00:59:56;-2.80;67.30
12839;DHT22;6486;51.034;5.262;2022-12-18T01:02:21;-2.80;67.40
12839;DHT22;6486;51.034;5.262;2022-12-18T01:04:47;-2.90;67.20
12839;DHT22;6486;51.034;5.262;2022-12-18T01:07:12;-2.90;67.20
12839;DHT22;6486;51.034;5.262;2022-12-18T01:09:38;-3.00;67.20
12839;DHT22;6486;51.034;5.262;2022-12-18T01:12:04;-3.00;67.30
12839;DHT22;6486;51.034;5.262;2022-12-18T01:14:29;-3.00;67.40
12839;DHT22;6486;51.034;5.262;2022-12-18T01:16:55;-3.00;67.40
12839;DHT22;6486;51.034;5.262;2022-12-18T01:19:20;-3.00;67.40
12839;DHT22;6486;51.034;5.262;2022-12-18T01:21:46;-3.00;67.40
12839;DHT22;6486;51.034;5.262;2022-12-18T01:24:12;-3.00;67.40
12839;DHT22;6486;51.034;5.262;2022-12-18T01:26:38;-3.00;67.40
12839;DHT22;6486;51.034;5.262;2022-12-18T01:29:03;-3.00;67.30
12839;DHT22;6486;51.034;5.262;2022-12-18T01:31:31;-2.90;67.20
12839;DHT22;6486;51.034;5.262;2022-12-18T01:33:57;-3.00;67.10
12839;DHT22;6486;51.034;5.262;2022-12-18T01:36:27;-3.00;67.10
12839;DHT22;6486;51.034;5.262;2022-12-18T01:38:53;-3.00;67.10
12839;DHT22;6486;51.034;5.262;2022-12-18T01:41:22;-3.00;67.10
12839;DHT22;6486;51.034;5.262;2022-12-18T01:43:57;-3.00;67.20
12839;DHT22;6486;51.034;5.262;2022-12-18T01:46:24;-3.00;67.20
12839;DHT22;6486;51.034;5.262;2022-12-18T01:48:53;-3.00;67.20
12839;DHT22;6486;51.034;5.262;2022-12-18T01:51:20;-3.00;67.10
12839;DHT22;6486;51.034;5.262;2022-12-18T01:53:46;-3.00;67.10
12839;DHT22;6486;51.034;5.262;2022-12-18T01:56:15;-3.00;67.00
12839;DHT22;6486;51.034;5.262;2022-12-18T02:01:10;-3.00;66.90
12839;DHT22;6486;51.034;5.262;2022-12-18T02:03:36;-3.00;66.90
12839;DHT22;6486;51.034;5.262;2022-12-18T02:11:51;-3.10;66.80
12839;DHT22;6486;51.034;5.262;2022-12-18T02:14:35;-3.20;66.60
12839;DHT22;6486;51.034;5.262;2022-12-18T02:17:07;-3.20;66.60
12839;DHT22;6486;51.034;5.262;2022-12-18T02:27:41;-3.30;66.30
12839;DHT22;6486;51.034;5.262;2022-12-18T02:30:10;-3.30;66.30
12839;DHT22;6486;51.034;5.262;2022-12-18T02:32:43;-3.30;66.30
12839;DHT22;6486;51.034;5.262;2022-12-18T02:35:16;-3.30;66.30
12839;DHT22;6486;51.034;5.262;2022-12-18T02:37:43;-3.40;66.20
12839;DHT22;6486;51.034;5.262;2022-12-18T02:40:11;-3.40;66.30
12839;DHT22;6486;51.034;5.262;2022-12-18T02:42:37;-3.40;66.30
12839;DHT22;6486;51.034;5.262;2022-12-18T02:45:03;-3.40;66.30
12839;DHT22;6486;51.034;5.262;2022-12-18T02:47:32;-3.40;66.30
12839;DHT22;6486;51.034;5.262;2022-12-18T03:04:01;-3.50;65.90
12839;DHT22;6486;51.034;5.262;2022-12-18T03:06:37;-3.50;65.70
12839;DHT22;6486;51.034;5.262;2022-12-18T03:09:09;-3.50;65.70
12839;DHT22;6486;51.034;5.262;2022-12-18T03:11:40;-3.60;65.60
12839;DHT22;6486;51.034;5.262;2022-12-18T03:14:28;-3.60;65.40
12839;DHT22;6486;51.034;5.262;2022-12-18T03:16:59;-3.70;65.40
12839;DHT22;6486;51.034;5.262;2022-12-18T03:19:28;-3.70;65.40
12839;DHT22;6486;51.034;5.262;2022-12-18T03:21:56;-3.70;65.50
12839;DHT22;6486;51.034;5.262;2022-12-18T03:24:23;-3.70;65.60
12839;DHT22;6486;51.034;5.262;2022-12-18T03:26:53;-3.70;65.60
12839;DHT22;6486;51.034;5.262;2022-12-18T03:29:25;-3.70;65.50
12839;DHT22;6486;51.034;5.262;2022-12-18T03:31:59;-3.70;65.40
12839;DHT22;6486;51.034;5.262;2022-12-18T03:34:30;-3.80;66.00
12839;DHT22;6486;51.034;5.262;2022-12-18T03:36:57;-3.80;65.40
12839;DHT22;6486;51.034;5.262;2022-12-18T03:39:24;-3.80;65.40
12839;DHT22;6486;51.034;5.262;2022-12-18T03:47:27;-3.80;65.60
12839;DHT22;6486;51.034;5.262;2022-12-18T03:50:13;-3.80;65.60
12839;DHT22;6486;51.034;5.262;2022-12-18T03:52:49;-3.80;65.50
12839;DHT22;6486;51.034;5.262;2022-12-18T03:55:18;-3.80;65.50
12839;DHT22;6486;51.034;5.262;2022-12-18T03:57:45;-3.80;65.50
12839;DHT22;6486;51.034;5.262;2022-12-18T04:00:14;-3.80;65.50
12839;DHT22;6486;51.034;5.262;2022-12-18T04:02:45;-3.80;65.50
12839;DHT22;6486;51.034;5.262;2022-12-18T04:05:13;-3.90;65.30
12839;DHT22;6486;51.034;5.262;2022-12-18T04:07:40;-3.80;65.40
12839;DHT22;6486;51.034;5.262;2022-12-18T04:10:07;-3.80;65.40
12839;DHT22;6486;51.034;5.262;2022-12-18T04:12:38;-3.90;65.20
12839;DHT22;6486;51.034;5.262;2022-12-18T04:15:05;-3.90;65.20
12839;DHT22;6486;51.034;5.262;2022-12-18T04:17:30;-3.90;65.30
12839;DHT22;6486;51.034;5.262;2022-12-18T04:19:56;-3.90;65.30
12839;DHT22;6486;51.034;5.262;2022-12-18T04:22:22;-3.90;65.30
12839;DHT22;6486;51.034;5.262;2022-12-18T04:24:47;-3.90;65.30
12839;DHT22;6486;51.034;5.262;2022-12-18T04:27:13;-3.90;65.20
12839;DHT22;6486;51.034;5.262;2022-12-18T04:29:39;-4.00;65.00
12839;DHT22;6486;51.034;5.262;2022-12-18T04:32:05;-4.00;65.00
12839;DHT22;6486;51.034;5.262;2022-12-18T04:34:30;-4.00;65.00
12839;DHT22;6486;51.034;5.262;2022-12-18T04:36:56;-4.00;65.10
12839;DHT22;6486;51.034;5.262;2022-12-18T04:39:21;-4.00;65.00
12839;DHT22;6486;51.034;5.262;2022-12-18T04:41:47;-4.00;65.00
12839;DHT22;6486;51.034;5.262;2022-12-18T04:44:13;-4.00;65.00
12839;DHT22;6486;51.034;5.262;2022-12-18T04:46:38;-4.00;65.00
12839;DHT22;6486;51.034;5.262;2022-12-18T04:49:04;-4.00;65.00
12839;DHT22;6486;51.034;5.262;2022-12-18T04:51:30;-4.00;65.00
12839;DHT22;6486;51.034;5.262;2022-12-18T04:53:55;-4.00;65.00
12839;DHT22;6486;51.034;5.262;2022-12-18T04:56:21;-4.00;65.00
12839;DHT22;6486;51.034;5.262;2022-12-18T04:58:47;-4.00;64.90
12839;DHT22;6486;51.034;5.262;2022-12-18T05:01:14;-4.10;64.70
12839;DHT22;6486;51.034;5.262;2022-12-18T05:03:40;-4.10;64.70
12839;DHT22;6486;51.034;5.262;2022-12-18T05:06:06;-4.10;64.70
12839;DHT22;6486;51.034;5.262;2022-12-18T05:08:33;-4.10;64.80
12839;DHT22;6486;51.034;5.262;2022-12-18T05:11:06;-4.10;64.90
12839;DHT22;6486;51.034;5.262;2022-12-18T05:13:33;-4.10;65.00
12839;DHT22;6486;51.034;5.262;2022-12-18T05:15:59;-4.10;65.60
12839;DHT22;6486;51.034;5.262;2022-12-18T05:18:25;-4.10;64.90
12839;DHT22;6486;51.034;5.262;2022-12-18T05:20:52;-4.10;65.00
12839;DHT22;6486;51.034;5.262;2022-12-18T05:23:18;-4.10;65.00
12839;DHT22;6486;51.034;5.262;2022-12-18T05:26:14;-4.10;65.10
12839;DHT22;6486;51.034;5.262;2022-12-18T05:28:40;-4.10;65.10
12839;DHT22;6486;51.034;5.262;2022-12-18T05:31:05;-4.10;65.20
12839;DHT22;6486;51.034;5.262;2022-12-18T05:33:33;-4.10;65.10
12839;DHT22;6486;51.034;5.262;2022-12-18T05:36:00;-4.10;65.20
12839;DHT22;6486;51.034;5.262;2022-12-18T05:38:27;-4.10;65.20
12839;DHT22;6486;51.034;5.262;2022-12-18T05:40:54;-4.00;65.40
12839;DHT22;6486;51.034;5.262;2022-12-18T05:43:21;-4.00;65.40
12839;DHT22;6486;51.034;5.262;2022-12-18T05:45:50;-4.00;65.30
12839;DHT22;6486;51.034;5.262;2022-12-18T05:48:17;-4.00;65.30
12839;DHT22;6486;51.034;5.262;2022-12-18T05:50:44;-4.00;65.40
12839;DHT22;6486;51.034;5.262;2022-12-18T05:53:14;-4.00;65.40
12839;DHT22;6486;51.034;5.262;2022-12-18T05:55:41;-4.10;65.20
12839;DHT22;6486;51.034;5.262;2022-12-18T05:58:08;-4.00;65.40
12839;DHT22;6486;51.034;5.262;2022-12-18T06:00:36;-4.10;65.30
12839;DHT22;6486;51.034;5.262;2022-12-18T06:03:06;-4.00;65.50
12839;DHT22;6486;51.034;5.262;2022-12-18T06:05:36;-4.00;65.50
12839;DHT22;6486;51.034;5.262;2022-12-18T06:08:02;-4.00;65.40
12839;DHT22;6486;51.034;5.262;2022-12-18T06:10:28;-4.10;65.30
12839;DHT22;6486;51.034;5.262;2022-12-18T06:12:54;-4.10;65.20
12839;DHT22;6486;51.034;5.262;2022-12-18T06:15:19;-4.10;65.30
12839;DHT22;6486;51.034;5.262;2022-12-18T06:17:45;-4.10;65.30
12839;DHT22;6486;51.034;5.262;2022-12-18T06:20:10;-4.10;65.30
12839;DHT22;6486;51.034;5.262;2022-12-18T06:22:36;-4.20;65.30
12839;DHT22;6486;51.034;5.262;2022-12-18T06:25:02;-4.20;65.40
12839;DHT22;6486;51.034;5.262;2022-12-18T06:27:27;-4.20;65.40
12839;DHT22;6486;51.034;5.262;2022-12-18T06:29:53;-4.20;65.40
12839;DHT22;6486;51.034;5.262;2022-12-18T06:32:18;-4.20;65.40
12839;DHT22;6486;51.034;5.262;2022-12-18T06:34:44;-4.10;65.50
12839;DHT22;6486;51.034;5.262;2022-12-18T06:37:09;-4.10;65.50
12839;DHT22;6486;51.034;5.262;2022-12-18T06:39:35;-4.10;65.50
12839;DHT22;6486;51.034;5.262;2022-12-18T06:42:01;-4.10;65.50
12839;DHT22;6486;51.034;5.262;2022-12-18T06:44:26;-4.10;65.50
12839;DHT22;6486;51.034;5.262;2022-12-18T06:46:52;-4.10;65.40
12839;DHT22;6486;51.034;5.262;2022-12-18T06:49:17;-4.10;65.40
12839;DHT22;6486;51.034;5.262;2022-12-18T06:51:43;-4.10;65.40
12839;DHT22;6486;51.034;5.262;2022-12-18T06:54:08;-4.20;65.30
12839;DHT22;6486;51.034;5.262;2022-12-18T06:56:34;-4.20;65.40
12839;DHT22;6486;51.034;5.262;2022-12-18T06:59:00;-4.20;65.50
12839;DHT22;6486;51.034;5.262;2022-12-18T07:01:26;-4.20;65.50
12839;DHT22;6486;51.034;5.262;2022-12-18T07:03:56;-4.20;65.50
12839;DHT22;6486;51.034;5.262;2022-12-18T07:06:24;-4.20;65.40
12839;DHT22;6486;51.034;5.262;2022-12-18T07:08:51;-4.20;65.40
12839;DHT22;6486;51.034;5.262;2022-12-18T07:11:18;-4.20;65.30
12839;DHT22;6486;51.034;5.262;2022-12-18T07:13:44;-4.20;65.30
12839;DHT22;6486;51.034;5.262;2022-12-18T07:16:20;-4.20;65.30
12839;DHT22;6486;51.034;5.262;2022-12-18T07:18:46;-4.20;65.90
12839;DHT22;6486;51.034;5.262;2022-12-18T07:21:14;-4.30;65.20
12839;DHT22;6486;51.034;5.262;2022-12-18T07:23:40;-4.30;65.20
12839;DHT22;6486;51.034;5.262;2022-12-18T07:26:09;-4.30;65.40
12839;DHT22;6486;51.034;5.262;2022-12-18T07:28:36;-4.30;65.40
12839;DHT22;6486;51.034;5.262;2022-12-18T07:31:10;-4.20;65.50
12839;DHT22;6486;51.034;5.262;2022-12-18T07:33:36;-4.20;65.60
12839;DHT22;6486;51.034;5.262;2022-12-18T07:36:04;-4.20;65.70
12839;DHT22;6486;51.034;5.262;2022-12-18T07:38:31;-4.20;65.70
12839;DHT22;6486;51.034;5.262;2022-12-18T07:41:08;-4.10;65.70
12839;DHT22;6486;51.034;5.262;2022-12-18T07:43:34;-4.10;65.70
12839;DHT22;6486;51.034;5.262;2022-12-18T07:46:00;-4.10;65.70
12839;DHT22;6486;51.034;5.262;2022-12-18T07:48:26;-4.00;66.40
12839;DHT22;6486;51.034;5.262;2022-12-18T07:50:52;-4.00;66.00
12839;DHT22;6486;51.034;5.262;2022-12-18T07:53:17;-4.00;65.70
12839;DHT22;6486;51.034;5.262;2022-12-18T07:55:43;-4.00;65.70
12839;DHT22;6486;51.034;5.262;2022-12-18T07:58:09;-4.00;65.60
12839;DHT22;6486;51.034;5.262;2022-12-18T08:00:35;-3.90;65.80
12839;DHT22;6486;51.034;5.262;2022-12-18T08:03:01;-3.90;66.40
12839;DHT22;6486;51.034;5.262;2022-12-18T08:05:27;-3.90;65.70
12839;DHT22;6486;51.034;5.262;2022-12-18T08:07:53;-3.80;65.80
12839;DHT22;6486;51.034;5.262;2022-12-18T08:10:19;-3.80;65.70
12839;DHT22;6486;51.034;5.262;2022-12-18T08:12:45;-3.80;65.70
12839;DHT22;6486;51.034;5.262;2022-12-18T08:15:11;-3.70;65.80
12839;DHT22;6486;51.034;5.262;2022-12-18T08:17:36;-3.70;65.80
12839;DHT22;6486;51.034;5.262;2022-12-18T08:20:03;-3.70;65.80
12839;DHT22;6486;51.034;5.262;2022-12-18T08:22:29;-3.60;65.90
12839;DHT22;6486;51.034;5.262;2022-12-18T08:24:54;-3.60;65.90
12839;DHT22;6486;51.034;5.262;2022-12-18T08:27:20;-3.60;65.90
12839;DHT22;6486;51.034;5.262;2022-12-18T08:29:45;-3.50;66.00
12839;DHT22;6486;51.034;5.262;2022-12-18T08:32:11;-3.50;65.90
12839;DHT22;6486;51.034;5.262;2022-12-18T08:34:37;-3.40;65.90
12839;DHT22;6486;51.034;5.262;2022-12-18T08:37:02;-3.30;66.00
12839;DHT22;6486;51.034;5.262;2022-12-18T08:39:28;-3.30;65.90
12839;DHT22;6486;51.034;5.262;2022-12-18T08:41:53;-3.30;65.90
12839;DHT22;6486;51.034;5.262;2022-12-18T08:44:37;-3.20;66.00
12839;DHT22;6486;51.034;5.262;2022-12-18T08:47:04;-3.10;66.10
12839;DHT22;6486;51.034;5.262;2022-12-18T08:49:29;-3.10;66.10
12839;DHT22;6486;51.034;5.262;2022-12-18T08:51:56;-3.00;66.10
12839;DHT22;6486;51.034;5.262;2022-12-18T08:54:23;-2.90;66.20
12839;DHT22;6486;51.034;5.262;2022-12-18T08:56:49;-2.90;66.20
12839;DHT22;6486;51.034;5.262;2022-12-18T08:59:18;-2.80;66.30
12839;DHT22;6486;51.034;5.262;2022-12-18T09:01:45;-2.70;67.00
12839;DHT22;6486;51.034;5.262;2022-12-18T09:04:10;-2.60;66.40
12839;DHT22;6486;51.034;5.262;2022-12-18T09:06:36;-2.60;66.40
12839;DHT22;6486;51.034;5.262;2022-12-18T09:09:03;-2.50;66.50
12839;DHT22;6486;51.034;5.262;2022-12-18T09:11:30;-2.50;66.50
12839;DHT22;6486;51.034;5.262;2022-12-18T09:13:56;-2.40;66.60
12839;DHT22;6486;51.034;5.262;2022-12-18T09:16:23;-2.30;66.70
12839;DHT22;6486;51.034;5.262;2022-12-18T09:18:50;-2.30;66.60
12839;DHT22;6486;51.034;5.262;2022-12-18T09:21:18;-2.20;66.70
12839;DHT22;6486;51.034;5.262;2022-12-18T09:23:44;-2.20;66.80
12839;DHT22;6486;51.034;5.262;2022-12-18T09:26:09;-2.10;66.80
12839;DHT22;6486;51.034;5.262;2022-12-18T09:28:35;-2.00;66.90
12839;DHT22;6486;51.034;5.262;2022-12-18T09:31:05;-2.00;66.90
12839;DHT22;6486;51.034;5.262;2022-12-18T09:33:33;-1.90;66.90
12839;DHT22;6486;51.034;5.262;2022-12-18T09:36:01;-1.90;66.90
12839;DHT22;6486;51.034;5.262;2022-12-18T09:38:27;-1.80;67.00
12839;DHT22;6486;51.034;5.262;2022-12-18T09:41:00;-1.80;67.00
12839;DHT22;6486;51.034;5.262;2022-12-18T09:43:42;-1.70;67.10
12839;DHT22;6486;51.034;5.262;2022-12-18T09:46:16;-1.60;67.20
12839;DHT22;6486;51.034;5.262;2022-12-18T09:48:47;-1.60;67.20
12839;DHT22;6486;51.034;5.262;2022-12-18T09:51:22;-1.50;67.30
12839;DHT22;6486;51.034;5.262;2022-12-18T09:53:59;-1.40;67.40
12839;DHT22;6486;51.034;5.262;2022-12-18T09:56:28;-1.40;67.30
12839;DHT22;6486;51.034;5.262;2022-12-18T09:59:01;-1.30;67.50
12839;DHT22;6486;51.034;5.262;2022-12-18T10:01:28;-1.30;67.50
12839;DHT22;6486;51.034;5.262;2022-12-18T10:03:55;-1.20;67.50
12839;DHT22;6486;51.034;5.262;2022-12-18T10:06:35;-1.20;68.20
12839;DHT22;6486;51.034;5.262;2022-12-18T10:14:43;-1.00;67.80
12839;DHT22;6486;51.034;5.262;2022-12-18T10:17:42;-0.90;67.90
12839;DHT22;6486;51.034;5.262;2022-12-18T10:20:22;-0.90;67.90
12839;DHT22;6486;51.034;5.262;2022-12-18T10:25:36;-0.80;68.00
12839;DHT22;6486;51.034;5.262;2022-12-18T10:28:13;-0.80;68.00
12839;DHT22;6486;51.034;5.262;2022-12-18T10:30:40;-0.70;68.10
12839;DHT22;6486;51.034;5.262;2022-12-18T10:33:16;-0.70;68.10
12839;DHT22;6486;51.034;5.262;2022-12-18T10:35:43;-0.60;68.20
12839;DHT22;6486;51.034;5.262;2022-12-18T10:40:54;-0.50;68.30
12839;DHT22;6486;51.034;5.262;2022-12-18T10:43:32;-0.50;68.30
12839;DHT22;6486;51.034;5.262;2022-12-18T10:51:31;-0.30;68.60
12839;DHT22;6486;51.034;5.262;2022-12-18T10:56:28;-0.30;68.70
12839;DHT22;6486;51.034;5.262;2022-12-18T10:59:00;-0.30;68.70
12839;DHT22;6486;51.034;5.262;2022-12-18T11:01:27;-0.20;68.90
12839;DHT22;6486;51.034;5.262;2022-12-18T11:06:20;-0.20;68.90
12839;DHT22;6486;51.034;5.262;2022-12-18T11:09:21;-0.20;68.90
12839;DHT22;6486;51.034;5.262;2022-12-18T11:11:55;-0.10;69.10
12839;DHT22;6486;51.034;5.262;2022-12-18T11:14:26;-0.10;69.10
12839;DHT22;6486;51.034;5.262;2022-12-18T11:16:54;-0.10;69.10
12839;DHT22;6486;51.034;5.262;2022-12-18T11:21:55;0.00;69.10
12839;DHT22;6486;51.034;5.262;2022-12-18T11:24:31;0.10;69.20
12839;DHT22;6486;51.034;5.262;2022-12-18T11:26:59;0.10;69.20
12839;DHT22;6486;51.034;5.262;2022-12-18T11:29:33;0.20;69.20
12839;DHT22;6486;51.034;5.262;2022-12-18T11:34:42;0.30;69.30
12839;DHT22;6486;51.034;5.262;2022-12-18T11:37:09;0.30;69.30
12839;DHT22;6486;51.034;5.262;2022-12-18T11:39:44;0.40;69.40
12839;DHT22;6486;51.034;5.262;2022-12-18T11:45:23;0.50;69.50
12839;DHT22;6486;51.034;5.262;2022-12-18T11:50:20;0.60;69.60
12839;DHT22;6486;51.034;5.262;2022-12-18T11:52:47;0.60;69.60
12839;DHT22;6486;51.034;5.262;2022-12-18T12:06:33;0.80;69.70
12839;DHT22;6486;51.034;5.262;2022-12-18T12:16:53;0.90;69.90
12839;DHT22;6486;51.034;5.262;2022-12-18T12:22:55;0.90;69.80
12839;DHT22;6486;51.034;5.262;2022-12-18T12:25:46;0.90;69.80
12839;DHT22;6486;51.034;5.262;2022-12-18T12:31:03;1.00;69.90
12839;DHT22;6486;51.034;5.262;2022-12-18T12:34:11;1.00;70.00
12839;DHT22;6486;51.034;5.262;2022-12-18T12:39:19;1.10;70.10
12839;DHT22;6486;51.034;5.262;2022-12-18T12:41:47;1.10;70.20
12839;DHT22;6486;51.034;5.262;2022-12-18T12:44:35;1.10;70.80
12839;DHT22;6486;51.034;5.262;2022-12-18T12:47:20;1.20;70.30
12839;DHT22;6486;51.034;5.262;2022-12-18T12:49:47;1.20;70.30
12839;DHT22;6486;51.034;5.262;2022-12-18T12:52:26;1.20;70.30
12839;DHT22;6486;51.034;5.262;2022-12-18T12:54:54;1.20;70.30
12839;DHT22;6486;51.034;5.262;2022-12-18T12:57:25;1.20;70.30
12839;DHT22;6486;51.034;5.262;2022-12-18T13:00:13;1.30;70.30
12839;DHT22;6486;51.034;5.262;2022-12-18T13:02:52;1.30;70.30
12839;DHT22;6486;51.034;5.262;2022-12-18T13:05:54;1.30;70.30
12839;DHT22;6486;51.034;5.262;2022-12-18T13:08:32;1.30;70.30
12839;DHT22;6486;51.034;5.262;2022-12-18T13:11:31;1.40;70.50
12839;DHT22;6486;51.034;5.262;2022-12-18T13:14:30;1.40;70.40
12839;DHT22;6486;51.034;5.262;2022-12-18T13:20:06;1.40;70.40
12839;DHT22;6486;51.034;5.262;2022-12-18T13:22:53;1.50;70.50
12839;DHT22;6486;51.034;5.262;2022-12-18T13:25:28;1.50;70.50
12839;DHT22;6486;51.034;5.262;2022-12-18T13:28:00;1.50;70.40
12839;DHT22;6486;51.034;5.262;2022-12-18T13:38:33;1.60;70.50
12839;DHT22;6486;51.034;5.262;2022-12-18T13:41:30;1.60;70.50
12839;DHT22;6486;51.034;5.262;2022-12-18T13:43:57;1.60;70.50
12839;DHT22;6486;51.034;5.262;2022-12-18T13:46:48;1.60;70.50
12839;DHT22;6486;51.034;5.262;2022-12-18T13:49:35;1.60;70.50
12839;DHT22;6486;51.034;5.262;2022-12-18T13:52:02;1.60;70.50
12839;DHT22;6486;51.034;5.262;2022-12-18T13:54:40;1.60;70.50
12839;DHT22;6486;51.034;5.262;2022-12-18T13:57:29;1.60;70.60
12839;DHT22;6486;51.034;5.262;2022-12-18T13:59:56;1.70;70.60
12839;DHT22;6486;51.034;5.262;2022-12-18T14:02:27;1.60;70.60
12839;DHT22;6486;51.034;5.262;2022-12-18T14:04:54;1.70;70.70
12839;DHT22;6486;51.034;5.262;2022-12-18T14:07:24;1.70;70.70
12839;DHT22;6486;51.034;5.262;2022-12-18T14:09:56;1.70;70.70
12839;DHT22;6486;51.034;5.262;2022-12-18T14:12:30;1.70;70.70
12839;DHT22;6486;51.034;5.262;2022-12-18T14:17:58;1.60;70.70
12839;DHT22;6486;51.034;5.262;2022-12-18T14:20:25;1.60;70.70
12839;DHT22;6486;51.034;5.262;2022-12-18T14:22:52;1.60;70.70
12839;DHT22;6486;51.034;5.262;2022-12-18T14:25:26;1.60;70.70
12839;DHT22;6486;51.034;5.262;2022-12-18T14:28:24;1.60;71.40
12839;DHT22;6486;51.034;5.262;2022-12-18T14:30:51;1.60;70.70
12839;DHT22;6486;51.034;5.262;2022-12-18T14:33:20;1.60;70.80
12839;DHT22;6486;51.034;5.262;2022-12-18T14:35:54;1.60;70.80
12839;DHT22;6486;51.034;5.262;2022-12-18T14:43:30;1.60;71.00
12839;DHT22;6486;51.034;5.262;2022-12-18T14:45:57;1.60;71.00
12839;DHT22;6486;51.034;5.262;2022-12-18T14:48:42;1.60;71.00
12839;DHT22;6486;51.034;5.262;2022-12-18T14:51:23;1.60;70.90
12839;DHT22;6486;51.034;5.262;2022-12-18T14:53:53;1.60;71.00
12839;DHT22;6486;51.034;5.262;2022-12-18T14:56:44;1.60;71.00
12839;DHT22;6486;51.034;5.262;2022-12-18T14:59:16;1.60;71.00
12839;DHT22;6486;51.034;5.262;2022-12-18T15:02:10;1.60;71.00
12839;DHT22;6486;51.034;5.262;2022-12-18T15:04:41;1.60;71.00
12839;DHT22;6486;51.034;5.262;2022-12-18T15:07:22;1.60;71.00
12839;DHT22;6486;51.034;5.262;2022-12-18T15:10:14;1.50;71.00
12839;DHT22;6486;51.034;5.262;2022-12-18T15:12:45;1.50;71.00
12839;DHT22;6486;51.034;5.262;2022-12-18T15:18:03;1.50;71.00
12839;DHT22;6486;51.034;5.262;2022-12-18T15:20:39;1.50;71.10
12839;DHT22;6486;51.034;5.262;2022-12-18T15:23:12;1.50;71.00
12839;DHT22;6486;51.034;5.262;2022-12-18T15:25:38;1.50;71.10
12839;DHT22;6486;51.034;5.262;2022-12-18T15:28:18;1.50;71.00
12839;DHT22;6486;51.034;5.262;2022-12-18T15:31:20;1.40;71.00
12839;DHT22;6486;51.034;5.262;2022-12-18T15:36:19;1.40;71.10
12839;DHT22;6486;51.034;5.262;2022-12-18T15:38:49;1.40;71.20
12839;DHT22;6486;51.034;5.262;2022-12-18T15:41:17;1.40;71.20
12839;DHT22;6486;51.034;5.262;2022-12-18T15:43:43;1.40;71.20
12839;DHT22;6486;51.034;5.262;2022-12-18T15:46:12;1.40;71.20
12839;DHT22;6486;51.034;5.262;2022-12-18T15:48:46;1.50;71.30
12839;DHT22;6486;51.034;5.262;2022-12-18T15:51:21;1.50;71.20
12839;DHT22;6486;51.034;5.262;2022-12-18T15:53:49;1.50;71.20
12839;DHT22;6486;51.034;5.262;2022-12-18T15:56:15;1.50;71.20
12839;DHT22;6486;51.034;5.262;2022-12-18T15:59:00;1.50;71.20
12839;DHT22;6486;51.034;5.262;2022-12-18T16:01:28;1.50;71.00
12839;DHT22;6486;51.034;5.262;2022-12-18T16:03:54;1.50;71.00
12839;DHT22;6486;51.034;5.262;2022-12-18T16:06:21;1.60;71.10
12839;DHT22;6486;51.034;5.262;2022-12-18T16:08:47;1.60;71.10
12839;DHT22;6486;51.034;5.262;2022-12-18T16:11:27;1.60;71.10
12839;DHT22;6486;51.034;5.262;2022-12-18T16:14:21;1.60;71.00
12839;DHT22;6486;51.034;5.262;2022-12-18T16:16:49;1.70;70.90
12839;DHT22;6486;51.034;5.262;2022-12-18T16:19:16;1.70;71.50
12839;DHT22;6486;51.034;5.262;2022-12-18T16:21:42;1.70;70.90
12839;DHT22;6486;51.034;5.262;2022-12-18T16:24:16;1.70;70.80
12839;DHT22;6486;51.034;5.262;2022-12-18T16:26:43;1.70;70.70
12839;DHT22;6486;51.034;5.262;2022-12-18T16:29:09;1.70;70.80
12839;DHT22;6486;51.034;5.262;2022-12-18T16:31:34;1.70;70.60
12839;DHT22;6486;51.034;5.262;2022-12-18T16:34:19;1.70;70.50
12839;DHT22;6486;51.034;5.262;2022-12-18T16:36:50;1.80;70.60
12839;DHT22;6486;51.034;5.262;2022-12-18T16:39:17;1.80;70.40
12839;DHT22;6486;51.034;5.262;2022-12-18T16:41:43;1.80;70.30
12839;DHT22;6486;51.034;5.262;2022-12-18T16:44:09;1.80;70.30
12839;DHT22;6486;51.034;5.262;2022-12-18T16:46:36;1.80;70.20
12839;DHT22;6486;51.034;5.262;2022-12-18T16:49:01;1.90;70.20
12839;DHT22;6486;51.034;5.262;2022-12-18T16:51:27;1.90;70.10
12839;DHT22;6486;51.034;5.262;2022-12-18T16:53:54;1.90;70.70
12839;DHT22;6486;51.034;5.262;2022-12-18T16:56:20;1.90;70.00
12839;DHT22;6486;51.034;5.262;2022-12-18T16:58:56;1.90;69.80
12839;DHT22;6486;51.034;5.262;2022-12-18T17:01:23;2.00;69.80
12839;DHT22;6486;51.034;5.262;2022-12-18T17:03:56;2.00;69.80
12839;DHT22;6486;51.034;5.262;2022-12-18T17:06:23;2.00;69.60
12839;DHT22;6486;51.034;5.262;2022-12-18T17:09:01;2.00;70.10
12839;DHT22;6486;51.034;5.262;2022-12-18T17:11:30;2.00;69.40
12839;DHT22;6486;51.034;5.262;2022-12-18T17:13:56;2.00;69.20
12839;DHT22;6486;51.034;5.262;2022-12-18T17:16:22;2.00;69.00
12839;DHT22;6486;51.034;5.262;2022-12-18T17:18:48;2.00;68.90
12839;DHT22;6486;51.034;5.262;2022-12-18T17:21:14;2.00;68.70
12839;DHT22;6486;51.034;5.262;2022-12-18T17:23:41;2.10;68.80
12839;DHT22;6486;51.034;5.262;2022-12-18T17:26:08;2.10;68.70
12839;DHT22;6486;51.034;5.262;2022-12-18T17:28:36;2.10;68.50
12839;DHT22;6486;51.034;5.262;2022-12-18T17:31:13;2.10;68.40
12839;DHT22;6486;51.034;5.262;2022-12-18T17:33:39;2.20;68.40
12839;DHT22;6486;51.034;5.262;2022-12-18T17:36:05;2.20;68.20
12839;DHT22;6486;51.034;5.262;2022-12-18T17:38:31;2.20;68.20
12839;DHT22;6486;51.034;5.262;2022-12-18T17:41:05;2.20;68.10
12839;DHT22;6486;51.034;5.262;2022-12-18T17:43:31;2.20;68.00
12839;DHT22;6486;51.034;5.262;2022-12-18T17:46:01;2.20;67.80
12839;DHT22;6486;51.034;5.262;2022-12-18T17:48:28;2.20;67.80
12839;DHT22;6486;51.034;5.262;2022-12-18T17:50:53;2.20;67.70
12839;DHT22;6486;51.034;5.262;2022-12-18T17:53:19;2.30;67.80
12839;DHT22;6486;51.034;5.262;2022-12-18T17:55:53;2.30;67.70
12839;DHT22;6486;51.034;5.262;2022-12-18T17:58:19;2.30;67.60
12839;DHT22;6486;51.034;5.262;2022-12-18T18:00:44;2.30;67.50
12839;DHT22;6486;51.034;5.262;2022-12-18T18:03:10;2.30;67.50
12839;DHT22;6486;51.034;5.262;2022-12-18T18:05:35;2.30;67.50
12839;DHT22;6486;51.034;5.262;2022-12-18T18:08:01;2.30;67.40
12839;DHT22;6486;51.034;5.262;2022-12-18T18:10:27;2.40;67.50